Hudson, Ohio
Current Conditions -  °F | °C
As of 2:59 PM on Thursday 30 Oct 2014 (Local Time) from KPOV Reporting Station
Overcast Overcast  
Wind Chill: 45°   Ceiling: 3500
Heat Index: 47°   Visibility: 10mi
Dew Point: 33°   Wind: 5mph
Humidity: 58%   Direction: 260°W
Pressure: 30.07"   Gusts: NA
Location:  41.24°N, 81.44°W
Report Text: KPOV 301859Z AUTO 26004KT 10SM OVC035 09/01 A3007 RMK AO2 T00850006
Loading
Personal Weather Stations






























Interactive Weather Map New forecast layout! Learn more

10-Day Weather Forecast

Advertisements
Track Severe Weather on mobile